Time;durP1;ratioP1;P1;durP2;ratioP2;P2;SDS_P1;SDS_P2;PMS_P1;PMS_P2;Temp;Humidity;BMP_temperature;BMP_pressure;BME280_temperature;BME280_humidity;BME280_pressure;Samples;Min_cycle;Max_cycle;Signal;HPM_P1;HPM_P2
2022/12/08 00:02:17;;;;;;;2.30;2.10;;;15.60;61.00;16.70;100275.00;;;;5068964;28;20603;-41
2022/12/08 00:10:12;;;;;;;2.00;1.90;;;15.60;61.00;16.70;100273.00;;;;5069218;28;20219;-42
2022/12/08 00:12:38;;;;;;;2.10;2.00;;;15.60;61.00;16.60;100196.00;;;;5068743;28;20197;-44
2022/12/08 00:15:04;;;;;;;2.30;2.10;;;15.60;61.00;16.60;100265.00;;;;5068511;28;20615;-42
2022/12/08 00:17:30;;;;;;;2.37;2.17;;;15.50;60.90;16.60;100268.00;;;;5068341;28;20217;-43
2022/12/08 00:19:56;;;;;;;2.03;1.90;;;15.50;60.90;16.60;100273.00;;;;5068723;28;20665;-41
2022/12/08 00:22:22;;;;;;;2.40;2.20;;;15.50;60.90;16.60;100262.00;;;;5068531;28;20174;-43
2022/12/08 00:24:47;;;;;;;2.30;2.10;;;15.50;60.90;16.60;100258.00;;;;5068812;28;20170;-42
2022/12/08 00:27:14;;;;;;;2.50;2.30;;;15.50;60.90;16.60;100255.00;;;;5068773;28;20560;-44
2022/12/08 00:29:41;;;;;;;2.20;2.10;;;15.50;60.90;16.60;100242.00;;;;5068978;28;20178;-42
2022/12/08 00:32:07;;;;;;;2.50;2.30;;;15.50;60.90;16.50;100251.00;;;;5050609;28;20824;-45
2022/12/08 00:34:33;;;;;;;2.40;2.20;;;15.50;60.90;16.50;100257.00;;;;5068355;28;20181;-41
2022/12/08 00:36:59;;;;;;;2.20;2.00;;;15.40;61.10;16.50;100259.00;;;;5050816;28;20185;-42
2022/12/08 00:39:24;;;;;;;2.40;2.20;;;15.40;60.80;16.50;100249.00;;;;5068536;28;20758;-42
2022/12/08 00:44:35;;;;;;;2.47;2.27;;;15.40;60.80;16.50;100240.00;;;;5068472;28;20165;-42
2022/12/08 00:47:01;;;;;;;2.30;2.03;;;15.40;60.80;16.50;100242.00;;;;5068343;28;20162;-42
2022/12/08 00:49:26;;;;;;;2.30;2.10;;;15.40;60.90;16.50;100234.00;;;;5068443;28;20174;-43
2022/12/08 00:51:52;;;;;;;1.90;1.80;;;15.40;60.90;16.40;100228.00;;;;5068296;28;20205;-42
2022/12/08 00:54:18;;;;;;;2.10;2.00;;;15.40;60.80;16.40;100224.00;;;;5068577;28;20186;-43
2022/12/08 00:56:45;;;;;;;1.90;1.80;;;15.30;60.80;16.40;100219.00;;;;5068309;28;20174;-44
2022/12/08 00:59:10;;;;;;;2.20;2.00;;;15.30;60.80;16.40;100198.00;;;;5068278;28;20208;-43
2022/12/08 01:01:36;;;;;;;2.03;1.93;;;15.30;60.80;16.40;100221.00;;;;5068459;28;20517;-44
2022/12/08 01:04:06;;;;;;;2.07;1.97;;;15.30;60.70;16.40;100218.00;;;;5069166;28;20182;-41
2022/12/08 01:06:34;;;;;;;2.07;1.97;;;15.30;60.80;16.40;100201.00;;;;5069320;28;20174;-44
2022/12/08 01:09:01;;;;;;;2.53;2.10;;;15.30;60.80;16.40;100209.00;;;;5050893;28;20199;-44
2022/12/08 01:11:27;;;;;;;2.40;2.20;;;15.30;60.80;16.40;100209.00;;;;5070145;28;20261;-42
2022/12/08 01:13:53;;;;;;;2.20;2.00;;;15.30;60.80;16.40;100208.00;;;;5068088;28;20268;-42
2022/12/08 01:16:28;;;;;;;2.50;2.30;;;15.30;60.80;16.30;100214.00;;;;5068171;28;20180;-43
2022/12/08 01:18:54;;;;;;;2.30;2.10;;;15.30;60.80;16.30;100214.00;;;;5051366;28;20199;-43
2022/12/08 01:21:20;;;;;;;2.10;1.90;;;15.30;60.70;16.30;100213.00;;;;5069018;28;20173;-44
2022/12/08 01:23:45;;;;;;;2.00;1.90;;;15.20;60.70;16.30;100207.00;;;;5074103;28;20181;-42
2022/12/08 01:26:12;;;;;;;1.90;1.80;;;15.20;60.70;16.30;100218.00;;;;5068350;28;20170;-43
2022/12/08 01:28:38;;;;;;;2.30;2.10;;;15.20;60.70;16.30;100217.00;;;;5068078;28;20675;-44
2022/12/08 01:31:04;;;;;;;2.20;2.00;;;15.20;60.70;16.30;100219.00;;;;5070638;28;20257;-42
2022/12/08 01:33:30;;;;;;;2.00;1.90;;;15.20;60.70;16.30;100224.00;;;;5053542;28;20254;-44
2022/12/08 01:36:03;;;;;;;1.93;1.83;;;15.20;60.70;16.30;100218.00;;;;5071623;28;20214;-43
2022/12/08 01:38:28;;;;;;;2.30;2.10;;;15.20;60.70;16.30;100225.00;;;;5054638;28;20232;-42
2022/12/08 01:40:54;;;;;;;2.30;2.10;;;15.20;60.70;16.30;100224.00;;;;5036819;28;20241;-42
2022/12/08 01:43:20;;;;;;;2.00;1.90;;;15.20;60.60;16.00;100144.00;;;;5071092;28;20234;-42
2022/12/08 01:45:46;;;;;;;2.03;1.90;;;15.10;60.50;16.20;100219.00;;;;5071096;28;20666;-42
2022/12/08 01:48:26;;;;;;;1.83;1.73;;;15.10;60.60;16.20;100217.00;;;;5071216;28;20563;-43
2022/12/08 01:50:52;;;;;;;2.10;1.90;;;15.10;60.60;16.20;100203.00;;;;5054058;28;20158;-44
2022/12/08 01:53:25;;;;;;;2.00;1.90;;;15.10;60.60;16.20;100192.00;;;;5053456;28;20174;-42
2022/12/08 01:56:13;;;;;;;2.13;1.93;;;15.10;60.60;16.20;100195.00;;;;5053792;28;20248;-44
2022/12/08 01:58:46;;;;;;;2.07;1.90;;;15.10;60.60;16.20;100213.00;;;;5053555;28;20326;-43
2022/12/08 02:01:11;;;;;;;2.00;1.90;;;15.00;60.50;16.20;100224.00;;;;5037414;28;20177;-41
2022/12/08 02:03:47;;;;;;;2.47;2.27;;;15.10;60.60;16.20;100188.00;;;;5053242;28;20170;-42
2022/12/08 02:06:13;;;;;;;2.10;2.00;;;15.10;60.60;16.10;100202.00;;;;5053482;28;20184;-43
2022/12/08 02:08:39;;;;;;;1.90;1.80;;;15.10;60.60;16.10;100193.00;;;;5052915;28;20319;-43
2022/12/08 02:11:09;;;;;;;2.30;2.10;;;15.00;60.50;16.10;100196.00;;;;5053059;28;20250;-43
2022/12/08 02:13:35;;;;;;;2.10;1.97;;;15.00;60.50;16.10;100196.00;;;;5052808;28;20170;-44
2022/12/08 02:16:35;;;;;;;2.37;2.17;;;15.00;60.50;16.10;100191.00;;;;5070804;28;20666;-43
2022/12/08 02:19:18;;;;;;;2.10;2.00;;;15.00;60.50;16.10;100191.00;;;;5055103;28;20573;-42
2022/12/08 02:21:56;;;;;;;2.07;1.97;;;15.00;60.50;16.10;100190.00;;;;5070982;28;20158;-44
2022/12/08 02:24:49;;;;;;;2.17;1.97;;;15.00;60.50;16.00;100184.00;;;;5070856;28;20188;-43
2022/12/08 02:27:40;;;;;;;2.20;2.00;;;15.00;60.60;16.00;100185.00;;;;5070634;28;20204;-42
2022/12/08 02:30:45;;;;;;;2.20;2.10;;;15.00;60.70;16.00;100179.00;;;;5053084;28;20166;-44
2022/12/08 02:33:27;;;;;;;2.10;2.00;;;14.90;60.50;16.00;100179.00;;;;5066774;28;20232;-42
2022/12/08 02:36:03;;;;;;;2.00;1.90;;;14.90;60.40;16.00;100177.00;;;;5052270;28;20272;-43
2022/12/08 02:38:50;;;;;;;2.47;2.10;;;14.90;60.50;16.00;100170.00;;;;5037037;28;20197;-42
2022/12/08 02:41:45;;;;;;;2.20;2.00;;;14.90;60.40;16.00;100158.00;;;;5070066;28;20158;-43
2022/12/08 02:44:45;;;;;;;2.33;2.13;;;14.90;60.50;16.00;100161.00;;;;5032567;28;20764;-43
2022/12/08 02:47:19;;;;;;;2.13;1.97;;;14.90;60.40;15.90;100160.00;;;;5054320;28;20193;-42
2022/12/08 02:49:44;;;;;;;2.00;1.90;;;14.90;60.50;15.90;100151.00;;;;5036698;28;20169;-46
2022/12/08 02:52:13;;;;;;;2.10;2.00;;;14.90;60.40;15.90;100156.00;;;;5070040;28;20565;-43
2022/12/08 02:54:55;;;;;;;2.00;1.90;;;14.80;60.30;15.90;100143.00;;;;5073580;28;20265;-42
2022/12/08 02:57:42;;;;;;;2.17;1.93;;;14.80;60.40;15.90;100143.00;;;;5052328;28;20189;-43
2022/12/08 03:00:19;;;;;;;2.10;2.00;;;14.80;60.30;15.90;100141.00;;;;5069578;28;20189;-43
2022/12/08 03:03:26;;;;;;;2.33;2.13;;;14.80;60.30;15.90;100142.00;;;;5036655;28;20191;-44
2022/12/08 03:06:17;;;;;;;2.30;2.10;;;14.80;60.30;15.90;100133.00;;;;5052422;28;20157;-45
2022/12/08 03:09:20;;;;;;;2.13;2.00;;;14.80;60.30;15.90;100120.00;;;;5069651;28;20225;-42
2022/12/08 03:11:53;;;;;;;2.00;1.90;;;14.80;60.30;15.90;100138.00;;;;5051680;28;20169;-43
2022/12/08 03:14:19;;;;;;;2.00;1.90;;;14.80;60.40;15.80;100102.00;;;;5051819;28;20157;-43
2022/12/08 03:16:47;;;;;;;1.90;1.80;;;14.80;60.30;15.80;100116.00;;;;5034790;28;20184;-43
2022/12/08 03:19:18;;;;;;;2.00;1.90;;;14.70;60.30;15.80;100115.00;;;;5035021;28;20202;-42
2022/12/08 03:21:47;;;;;;;2.00;1.90;;;14.70;60.30;15.80;100124.00;;;;5051974;28;20179;-41
2022/12/08 03:24:13;;;;;;;2.23;2.03;;;14.70;60.30;15.80;100114.00;;;;5069748;28;20195;-42
2022/12/08 03:26:56;;;;;;;1.90;1.80;;;14.70;60.30;15.80;100110.00;;;;5051083;28;20337;-42
2022/12/08 03:29:21;;;;;;;2.20;2.00;;;14.70;60.30;15.80;100093.00;;;;5051162;28;20681;-42
2022/12/08 03:31:59;;;;;;;2.10;2.00;;;14.70;60.20;15.80;100096.00;;;;5051123;28;20204;-43
2022/12/08 03:34:27;;;;;;;2.00;1.90;;;14.70;60.20;15.80;100101.00;;;;5052065;28;20244;-43
2022/12/08 03:36:53;;;;;;;1.90;1.80;;;14.70;60.30;15.80;100102.00;;;;5051779;28;20219;-43
2022/12/08 03:39:18;;;;;;;2.00;1.90;;;14.70;60.30;15.80;100108.00;;;;5069333;28;20223;-43
2022/12/08 03:41:44;;;;;;;2.00;1.90;;;14.70;60.30;15.80;100095.00;;;;5068722;28;20530;-44
2022/12/08 03:44:10;;;;;;;2.20;2.00;;;14.70;60.30;15.80;100093.00;;;;5051230;28;20178;-43
2022/12/08 03:46:36;;;;;;;2.17;2.00;;;14.70;60.30;15.80;100094.00;;;;5069197;28;20192;-43
2022/12/08 03:49:01;;;;;;;3.90;1.90;;;14.70;60.30;15.70;100085.00;;;;5051395;28;20965;-43
2022/12/08 03:51:27;;;;;;;2.10;2.00;;;14.70;60.30;15.70;100093.00;;;;5069176;28;20170;-43
2022/12/08 03:53:53;;;;;;;4.67;2.10;;;14.60;60.20;15.70;100093.00;;;;5051281;28;20170;-42
2022/12/08 03:56:32;;;;;;;2.10;1.90;;;14.60;60.10;15.70;100077.00;;;;5068827;28;20172;-43
2022/12/08 03:58:57;;;;;;;1.90;1.80;;;14.60;60.10;15.70;100084.00;;;;5052931;28;20251;-43
2022/12/08 04:01:23;;;;;;;1.90;1.80;;;14.60;60.20;15.70;100074.00;;;;5070199;28;20170;-42
2022/12/08 04:03:49;;;;;;;4.67;2.00;;;14.60;60.10;15.70;100078.00;;;;5051525;28;20687;-43
2022/12/08 04:06:15;;;;;;;2.30;1.90;;;14.60;60.20;15.70;100083.00;;;;5069946;28;20198;-43
2022/12/08 04:08:41;;;;;;;1.80;1.70;;;14.60;60.20;15.70;100082.00;;;;5069411;28;20190;-44
2022/12/08 04:11:06;;;;;;;5.13;1.80;;;14.60;60.30;15.70;100084.00;;;;5068753;28;20192;-41
2022/12/08 04:13:37;;;;;;;4.33;1.80;;;14.60;60.30;15.70;100066.00;;;;5068743;28;20645;-44
2022/12/08 04:16:03;;;;;;;2.43;2.03;;;14.50;60.10;15.70;100051.00;;;;5069161;28;20272;-42
2022/12/08 04:18:29;;;;;;;2.10;1.90;;;14.50;60.10;15.60;100062.00;;;;5068926;28;20203;-43
2022/12/08 04:20:55;;;;;;;2.30;1.80;;;14.50;60.10;15.60;100055.00;;;;5068557;28;20193;-42
2022/12/08 04:23:21;;;;;;;2.00;1.80;;;14.50;60.00;15.70;100047.00;;;;5053020;28;20188;-43
2022/12/08 04:25:47;;;;;;;2.70;1.80;;;14.50;60.10;15.60;100051.00;;;;5071216;28;20174;-42
2022/12/08 04:28:12;;;;;;;1.80;1.70;;;14.50;60.30;15.70;100046.00;;;;5068249;28;20511;-42
2022/12/08 04:30:38;;;;;;;1.93;1.83;;;14.60;60.50;15.60;100043.00;;;;5069027;28;20326;-43
2022/12/08 04:33:04;;;;;;;2.20;1.83;;;14.60;60.30;15.70;100042.00;;;;5068618;28;20169;-42
2022/12/08 04:35:30;;;;;;;1.93;1.83;;;14.70;60.10;15.70;100035.00;;;;5068813;28;20234;-42
2022/12/08 04:37:56;;;;;;;3.70;1.60;;;14.80;60.00;15.70;100032.00;;;;5068775;28;20193;-41
2022/12/08 04:40:22;;;;;;;2.00;1.80;;;14.90;60.10;15.80;100032.00;;;;5066629;28;20223;-42
2022/12/08 04:42:47;;;;;;;1.80;1.70;;;14.90;60.00;15.80;100027.00;;;;5067063;28;20169;-43
2022/12/08 04:45:13;;;;;;;3.10;1.90;;;15.00;60.00;15.80;100027.00;;;;5068683;28;20185;-42
2022/12/08 04:47:39;;;;;;;2.70;2.00;;;15.10;60.10;15.90;100038.00;;;;5051483;28;20194;-43
2022/12/08 04:50:06;;;;;;;2.17;1.90;;;15.10;60.00;15.90;100034.00;;;;5069425;28;20223;-43
2022/12/08 04:52:31;;;;;;;2.20;2.00;;;15.10;59.90;15.90;100035.00;;;;5051032;28;20174;-42
2022/12/08 04:54:57;;;;;;;2.47;2.10;;;15.10;59.90;15.90;100036.00;;;;5051567;28;20728;-44
2022/12/08 04:57:23;;;;;;;2.67;2.13;;;15.10;59.90;15.90;100038.00;;;;5068420;28;20225;-42
2022/12/08 04:59:48;;;;;;;3.50;2.27;;;15.10;59.90;15.90;100029.00;;;;5069005;28;20193;-43
2022/12/08 05:02:14;;;;;;;4.27;2.70;;;15.10;59.90;15.90;100021.00;;;;5068267;28;20243;-46
2022/12/08 05:04:40;;;;;;;4.07;2.57;;;15.00;59.70;15.90;100003.00;;;;5034923;28;20269;-43
2022/12/08 05:07:06;;;;;;;4.67;2.50;;;15.10;59.80;15.90;100018.00;;;;5073205;28;20219;-42
2022/12/08 05:09:31;;;;;;;3.93;2.43;;;15.00;59.70;15.90;100022.00;;;;5071422;28;20173;-43
2022/12/08 05:11:57;;;;;;;2.60;2.40;;;15.00;59.80;15.90;100020.00;;;;5070862;28;20192;-42
2022/12/08 05:14:23;;;;;;;2.70;2.50;;;15.00;59.80;15.90;100024.00;;;;5072843;28;20643;-42
2022/12/08 05:16:48;;;;;;;2.77;2.50;;;15.00;59.80;15.90;100022.00;;;;5072656;28;20181;-43
2022/12/08 05:19:14;;;;;;;2.93;2.37;;;15.00;59.80;15.90;100018.00;;;;5072331;28;20198;-42
2022/12/08 05:21:40;;;;;;;3.77;2.60;;;15.00;59.80;15.90;100014.00;;;;5054469;28;20172;-43
2022/12/08 05:24:06;;;;;;;4.23;2.80;;;15.00;59.80;15.90;100013.00;;;;5072799;28;20264;-44
2022/12/08 05:26:32;;;;;;;3.80;2.60;;;15.00;59.70;15.90;100017.00;;;;5072126;28;20197;-44
2022/12/08 05:28:58;;;;;;;3.73;2.60;;;15.00;59.70;15.90;100006.00;;;;5071915;28;20185;-43
2022/12/08 05:31:23;;;;;;;3.00;2.70;;;15.00;59.70;15.90;100009.00;;;;5072533;28;20169;-43
2022/12/08 05:33:50;;;;;;;3.47;2.70;;;14.90;59.70;15.90;100011.00;;;;5072766;28;20542;-43
2022/12/08 05:36:16;;;;;;;4.10;2.77;;;14.90;59.70;15.90;100006.00;;;;5072818;28;20176;-44
2022/12/08 05:38:42;;;;;;;2.87;2.43;;;14.90;59.70;15.90;100012.00;;;;5072448;28;20193;-42
2022/12/08 05:41:09;;;;;;;3.47;2.93;;;14.90;59.70;15.90;99999.00;;;;5055011;28;20197;-41
2022/12/08 05:43:35;;;;;;;3.57;2.97;;;14.90;59.70;15.90;100007.00;;;;5054348;28;20161;-43
2022/12/08 05:46:00;;;;;;;3.37;2.60;;;14.90;59.80;15.90;100007.00;;;;5073024;28;20173;-43
2022/12/08 05:48:26;;;;;;;4.43;2.93;;;14.90;60.10;15.80;99996.00;;;;5072643;28;20210;-43
2022/12/08 05:50:52;;;;;;;3.20;2.90;;;14.80;60.00;15.80;100010.00;;;;5072245;28;20665;-42
2022/12/08 05:53:18;;;;;;;2.80;2.60;;;14.80;60.00;15.80;99998.00;;;;5071659;28;20166;-42
2022/12/08 05:55:44;;;;;;;3.93;2.70;;;14.90;60.10;15.80;100001.00;;;;5072100;28;20174;-42
2022/12/08 05:58:18;;;;;;;3.73;3.00;;;14.80;60.00;15.80;99996.00;;;;5073458;28;20186;-42
2022/12/08 06:00:45;;;;;;;4.20;2.90;;;14.80;60.00;15.80;99994.00;;;;5073540;28;20259;-42
2022/12/08 06:03:11;;;;;;;4.67;3.20;;;14.80;60.00;15.80;99995.00;;;;5071453;28;20201;-42
2022/12/08 06:05:37;;;;;;;4.87;2.80;;;14.80;60.10;15.70;99991.00;;;;5071652;28;20231;-42
2022/12/08 06:08:03;;;;;;;7.23;2.87;;;14.80;60.10;15.70;99982.00;;;;5069796;28;20700;-43
2022/12/08 06:10:28;;;;;;;3.93;3.03;;;14.80;60.10;15.70;99996.00;;;;5052970;28;20843;-42
2022/12/08 06:12:54;;;;;;;6.00;2.97;;;14.80;60.20;15.70;99987.00;;;;5070916;28;20192;-42
2022/12/08 06:15:20;;;;;;;3.93;2.37;;;14.80;60.20;15.70;99995.00;;;;5070941;28;20259;-43
2022/12/08 06:17:45;;;;;;;3.40;2.90;;;14.70;60.10;15.70;99989.00;;;;5053231;28;20264;-42
2022/12/08 06:20:11;;;;;;;3.90;3.00;;;14.70;60.10;15.60;99989.00;;;;5052645;28;20197;-43
2022/12/08 06:22:37;;;;;;;2.70;2.50;;;14.70;60.10;15.70;99987.00;;;;5053543;28;20170;-42
2022/12/08 06:25:03;;;;;;;4.43;2.70;;;14.70;60.20;15.70;99985.00;;;;5072681;28;20227;-42
2022/12/08 06:27:29;;;;;;;6.00;2.70;;;14.70;60.30;15.70;99984.00;;;;5071424;28;20197;-42
2022/12/08 06:29:54;;;;;;;7.33;2.80;;;14.70;60.40;15.60;99983.00;;;;5070550;28;20178;-43
2022/12/08 06:32:20;;;;;;;3.07;2.63;;;14.70;60.40;15.60;99995.00;;;;5052415;28;20173;-41
2022/12/08 06:34:46;;;;;;;4.57;2.70;;;14.70;60.30;15.60;99990.00;;;;5053392;28;20177;-42
2022/12/08 06:37:12;;;;;;;3.93;2.57;;;14.60;60.30;15.60;99992.00;;;;5071194;28;20181;-42
2022/12/08 06:39:37;;;;;;;3.90;2.63;;;14.60;60.30;15.60;99997.00;;;;5071938;28;20189;-43
2022/12/08 06:44:47;;;;;;;3.00;2.70;;;14.60;60.30;15.60;99994.00;;;;5075570;28;20161;-42
2022/12/08 06:47:13;;;;;;;2.80;2.50;;;14.60;60.40;15.50;99990.00;;;;5056339;28;20166;-42
2022/12/08 06:49:39;;;;;;;2.80;2.60;;;14.60;60.50;15.50;99993.00;;;;5071525;28;20253;-41
2022/12/08 06:52:05;;;;;;;3.40;2.60;;;14.60;60.50;15.50;99986.00;;;;5053250;28;20181;-43
2022/12/08 06:54:30;;;;;;;2.80;2.50;;;14.60;60.50;15.50;99995.00;;;;5071375;28;20181;-43
2022/12/08 06:56:56;;;;;;;2.63;2.43;;;14.50;61.10;15.50;99993.00;;;;5070710;28;20194;-43
2022/12/08 06:59:24;;;;;;;3.90;2.73;;;14.50;60.30;15.50;99993.00;;;;5070751;28;20348;-43
2022/12/08 07:01:51;;;;;;;3.43;2.50;;;14.50;60.30;15.50;99985.00;;;;5052710;28;20165;-43
2022/12/08 07:04:16;;;;;;;2.73;2.53;;;14.50;60.40;15.50;99986.00;;;;5052747;28;20177;-43
2022/12/08 07:06:42;;;;;;;2.57;2.37;;;14.50;60.50;15.50;99993.00;;;;5070634;28;20177;-41
2022/12/08 07:09:08;;;;;;;2.77;2.27;;;14.50;60.40;15.50;99994.00;;;;5052178;28;20220;-42
2022/12/08 07:11:33;;;;;;;2.80;2.60;;;14.50;60.50;15.50;100006.00;;;;5069453;28;20465;-43
2022/12/08 07:13:59;;;;;;;2.63;2.43;;;14.50;60.60;15.50;100004.00;;;;5052792;28;20510;-43
2022/12/08 07:16:25;;;;;;;2.80;2.57;;;14.40;60.70;15.40;100006.00;;;;5052481;28;20189;-43
2022/12/08 07:18:51;;;;;;;2.87;2.50;;;14.40;60.70;15.40;100005.00;;;;5070049;28;20193;-43
2022/12/08 07:21:16;;;;;;;2.50;2.30;;;14.40;60.70;15.40;100007.00;;;;5069844;28;20200;-42
2022/12/08 07:23:44;;;;;;;2.60;2.40;;;14.30;60.60;15.40;100008.00;;;;5069952;28;20170;-41
2022/12/08 07:26:11;;;;;;;2.63;2.43;;;14.30;60.60;15.40;100013.00;;;;5070013;28;20165;-42
2022/12/08 07:28:38;;;;;;;2.50;2.30;;;14.40;60.70;15.40;100013.00;;;;5067506;28;20239;-42
2022/12/08 07:31:04;;;;;;;2.73;2.40;;;14.40;60.70;15.40;100013.00;;;;5052215;28;20208;-42
2022/12/08 07:33:31;;;;;;;2.60;2.40;;;14.40;60.70;15.40;100008.00;;;;5052171;28;20165;-42
2022/12/08 07:36:00;;;;;;;2.50;2.30;;;14.40;60.70;15.40;100005.00;;;;5070472;28;20173;-42
2022/12/08 07:38:27;;;;;;;3.13;2.83;;;14.30;60.70;15.40;100008.00;;;;5069649;28;20196;-42
2022/12/08 07:40:52;;;;;;;2.70;2.50;;;14.30;60.80;15.40;100003.00;;;;5051753;28;20227;-42
2022/12/08 07:43:19;;;;;;;3.00;2.30;;;14.30;61.00;15.40;100006.00;;;;5039501;28;20170;-43
2022/12/08 07:45:44;;;;;;;2.40;2.20;;;14.20;61.00;15.10;100003.00;;;;5052440;28;20166;-42
2022/12/08 07:48:10;;;;;;;2.87;2.30;;;14.20;60.90;15.40;100007.00;;;;5053876;28;20558;-42
2022/12/08 07:50:36;;;;;;;2.60;2.40;;;14.20;61.00;15.30;100003.00;;;;5069451;28;20193;-43
2022/12/08 07:53:02;;;;;;;3.23;2.20;;;14.20;60.90;15.30;100007.00;;;;5053002;28;20177;-43
2022/12/08 07:55:27;;;;;;;2.70;2.50;;;14.20;61.00;15.30;100010.00;;;;5070311;28;20178;-42
2022/12/08 07:57:53;;;;;;;2.50;2.30;;;14.20;61.20;15.30;100009.00;;;;5070320;28;20197;-44
2022/12/08 08:00:19;;;;;;;2.53;2.33;;;14.20;61.10;15.30;100010.00;;;;5069617;28;20224;-43
2022/12/08 08:02:45;;;;;;;2.50;2.30;;;14.10;61.10;15.30;100008.00;;;;5070380;28;20252;-43
2022/12/08 08:05:11;;;;;;;2.60;2.40;;;14.10;61.00;15.30;100015.00;;;;5070280;28;20654;-43
2022/12/08 08:07:38;;;;;;;2.60;2.40;;;14.20;61.30;15.30;100006.00;;;;5069678;28;20239;-43
2022/12/08 08:10:05;;;;;;;2.50;2.30;;;14.20;61.10;15.30;100018.00;;;;5070283;28;20537;-43
2022/12/08 08:12:31;;;;;;;2.50;2.30;;;14.30;61.10;15.30;100010.00;;;;5070273;28;20174;-42
2022/12/08 08:14:57;;;;;;;2.33;2.17;;;14.40;60.80;15.30;100005.00;;;;5070886;28;20252;-41
2022/12/08 08:17:23;;;;;;;2.40;2.20;;;14.60;60.90;15.40;100007.00;;;;5076012;28;20202;-42
2022/12/08 08:19:48;;;;;;;2.40;2.20;;;14.70;60.70;15.40;100006.00;;;;5066788;28;20958;-42
2022/12/08 08:22:14;;;;;;;2.40;2.20;;;14.80;60.50;15.50;100008.00;;;;5005919;28;20169;-42
2022/12/08 08:24:40;;;;;;;2.13;2.00;;;14.80;60.30;15.50;100011.00;;;;5069662;28;20573;-42
2022/12/08 08:27:06;;;;;;;2.40;2.20;;;14.80;60.30;15.50;100009.00;;;;5052756;28;20208;-41
2022/12/08 08:29:31;;;;;;;2.40;2.20;;;14.90;60.30;15.60;100008.00;;;;5049690;28;20698;-43
2022/12/08 08:31:57;;;;;;;2.27;2.10;;;14.80;60.10;15.60;100017.00;;;;5049474;28;20236;-42
2022/12/08 08:34:23;;;;;;;2.30;2.10;;;14.90;60.20;15.60;100017.00;;;;5050138;28;20174;-42
2022/12/08 08:36:48;;;;;;;2.30;2.10;;;14.90;60.30;15.70;100015.00;;;;5050016;28;20748;-42
2022/12/08 08:39:14;;;;;;;2.57;2.30;;;15.00;60.50;15.70;100020.00;;;;5050117;28;20544;-42
2022/12/08 08:41:40;;;;;;;3.57;2.30;;;15.00;60.60;15.70;100011.00;;;;5053359;28;20162;-42
2022/12/08 08:44:06;;;;;;;4.13;2.20;;;15.00;60.70;15.70;100020.00;;;;5053923;28;20173;-43
2022/12/08 08:46:32;;;;;;;2.30;2.10;;;15.00;60.70;15.70;100026.00;;;;5052322;28;20166;-42
2022/12/08 08:48:57;;;;;;;3.37;2.23;;;15.00;61.30;15.80;100011.00;;;;5053531;28;20740;-42
2022/12/08 08:51:23;;;;;;;3.53;2.20;;;15.10;61.00;15.80;100017.00;;;;5035238;28;20170;-43
2022/12/08 08:53:49;;;;;;;2.40;2.00;;;15.20;60.80;15.80;100025.00;;;;5052422;28;20174;-42
2022/12/08 08:56:18;;;;;;;2.23;2.00;;;15.30;60.60;15.90;100017.00;;;;5064566;28;20174;-42
2022/12/08 08:58:44;;;;;;;2.30;2.10;;;15.50;60.40;16.00;100018.00;;;;5065512;28;20198;-42
2022/12/08 09:01:17;;;;;;;2.10;1.90;;;15.60;60.10;16.10;100023.00;;;;5052394;28;20195;-43
2022/12/08 09:03:43;;;;;;;2.10;2.00;;;15.70;59.80;16.20;100020.00;;;;5053607;28;20705;-43
2022/12/08 09:06:09;;;;;;;1.97;1.87;;;15.90;59.70;16.30;100014.00;;;;5035917;28;20179;-43
2022/12/08 09:08:35;;;;;;;2.40;2.20;;;16.10;59.50;16.40;100011.00;;;;5053266;28;20190;-44
2022/12/08 09:11:00;;;;;;;2.53;2.00;;;16.20;59.30;16.50;100014.00;;;;5053370;28;20166;-42
2022/12/08 09:13:26;;;;;;;2.40;2.20;;;16.40;59.10;16.60;100025.00;;;;5052616;28;20178;-44
2022/12/08 09:15:52;;;;;;;2.10;2.00;;;16.50;58.90;16.70;100009.00;;;;5066021;28;20162;-42
2022/12/08 09:18:18;;;;;;;2.43;2.10;;;16.60;58.80;16.80;100013.00;;;;5058185;28;20248;-43
2022/12/08 09:20:43;;;;;;;3.40;2.00;;;16.70;58.90;16.70;100018.00;;;;5025727;28;20201;-42
2022/12/08 09:23:09;;;;;;;2.97;2.00;;;16.80;59.20;17.00;100001.00;;;;5053885;28;20250;-43
2022/12/08 09:25:35;;;;;;;4.30;2.13;;;17.00;59.00;17.20;100004.00;;;;5074315;28;20181;-43
2022/12/08 09:28:00;;;;;;;12.47;2.57;;;17.10;58.80;17.30;100007.00;;;;5074324;28;20200;-43
2022/12/08 09:30:26;;;;;;;6.20;2.43;;;17.20;58.70;17.40;100007.00;;;;5076980;28;20197;-42
2022/12/08 09:32:52;;;;;;;3.50;2.07;;;17.30;58.70;17.50;100010.00;;;;5056422;28;20805;-42
2022/12/08 09:35:18;;;;;;;5.47;2.30;;;17.50;58.60;17.50;100005.00;;;;5052778;28;20183;-44
2022/12/08 09:37:43;;;;;;;4.67;2.17;;;17.50;58.50;17.60;99998.00;;;;5052361;28;20190;-43
2022/12/08 09:40:14;;;;;;;6.50;2.63;;;17.60;58.60;17.70;100003.00;;;;5052879;28;20199;-43
2022/12/08 09:43:04;;;;;;;8.57;2.50;;;17.70;58.40;17.80;100007.00;;;;5035957;28;20267;-43
2022/12/08 09:45:32;;;;;;;3.90;2.17;;;17.80;58.40;17.90;100008.00;;;;5037656;28;20193;-43
2022/12/08 09:48:09;;;;;;;7.17;2.37;;;17.80;58.30;18.00;100009.00;;;;5023536;28;20184;-43
2022/12/08 09:50:48;;;;;;;2.83;2.20;;;17.80;58.40;18.00;99993.00;;;;5018456;28;20222;-43
2022/12/08 09:53:33;;;;;;;5.33;2.30;;;17.90;58.30;18.10;99992.00;;;;5036455;28;20158;-43
2022/12/08 09:56:11;;;;;;;4.37;2.10;;;18.00;58.30;18.10;100000.00;;;;5037899;28;20171;-43
2022/12/08 09:59:05;;;;;;;2.77;2.33;;;18.00;58.30;18.20;99998.00;;;;5035912;28;20193;-43
2022/12/08 10:01:33;;;;;;;6.77;2.23;;;17.90;58.30;18.20;99987.00;;;;5036164;28;20207;-42
2022/12/08 10:03:59;;;;;;;3.87;2.17;;;18.00;58.40;18.20;100000.00;;;;5035137;28;20191;-43
2022/12/08 10:06:48;;;;;;;3.47;2.17;;;17.90;58.40;18.20;99999.00;;;;5034667;28;20174;-43
2022/12/08 10:10:13;;;;;;;4.10;2.07;;;17.90;58.50;18.20;99994.00;;;;5051359;28;20182;-41
2022/12/08 10:13:00;;;;;;;2.23;2.00;;;17.90;58.50;18.20;99991.00;;;;4989876;28;20172;-43
2022/12/08 10:15:37;;;;;;;2.20;2.00;;;17.80;58.60;18.20;99992.00;;;;4976765;28;20174;-42
2022/12/08 10:18:10;;;;;;;1.90;1.80;;;17.80;58.70;18.20;99988.00;;;;5031809;28;20312;-43
2022/12/08 10:20:39;;;;;;;2.30;1.90;;;17.70;59.50;18.20;99985.00;;;;5025694;28;20187;-42
2022/12/08 10:23:12;;;;;;;2.23;1.90;;;17.70;59.00;18.20;99979.00;;;;5026922;28;20798;-43
2022/12/08 10:25:43;;;;;;;2.30;2.10;;;17.60;59.00;18.10;99984.00;;;;5055449;28;20223;-43
2022/12/08 10:28:09;;;;;;;2.93;2.10;;;17.60;59.00;18.10;99977.00;;;;5054979;28;20249;-43
2022/12/08 10:30:35;;;;;;;2.10;2.00;;;17.50;59.00;18.10;99988.00;;;;5054937;28;20175;-44
2022/12/08 10:33:01;;;;;;;2.27;1.93;;;17.50;59.10;18.10;99980.00;;;;5071741;28;20181;-43
2022/12/08 10:35:43;;;;;;;3.53;2.00;;;17.50;59.10;18.10;99982.00;;;;5072223;28;20174;-42
2022/12/08 10:38:22;;;;;;;3.90;1.93;;;17.40;59.10;18.10;99984.00;;;;5071772;28;20203;-43
2022/12/08 10:40:49;;;;;;;1.93;1.73;;;17.40;59.20;18.00;99975.00;;;;5055246;28;20177;-43
2022/12/08 10:43:21;;;;;;;1.90;1.80;;;17.40;59.30;18.00;99980.00;;;;5034679;28;20631;-44
2022/12/08 10:45:47;;;;;;;2.43;2.00;;;17.30;59.30;18.00;99984.00;;;;5057944;28;20173;-42
2022/12/08 10:48:17;;;;;;;2.17;1.80;;;17.30;59.40;18.00;99969.00;;;;5034038;28;20568;-42
2022/12/08 10:50:52;;;;;;;2.47;1.80;;;17.20;59.40;17.90;99974.00;;;;5050010;28;20188;-43
2022/12/08 10:53:29;;;;;;;2.70;2.10;;;17.20;59.40;17.90;99968.00;;;;5051595;28;20191;-42
2022/12/08 10:56:00;;;;;;;2.30;1.90;;;17.20;59.40;17.90;99969.00;;;;5051969;28;20174;-43
2022/12/08 10:58:39;;;;;;;2.20;2.00;;;17.10;59.40;17.90;99973.00;;;;5051450;28;20201;-43
2022/12/08 11:01:11;;;;;;;2.33;1.93;;;17.10;59.50;17.80;99968.00;;;;5051130;28;20188;-43
2022/12/08 11:04:00;;;;;;;2.37;1.90;;;17.10;59.60;17.80;99958.00;;;;5050872;28;20623;-43
2022/12/08 11:06:29;;;;;;;1.90;1.80;;;17.00;59.50;17.80;99951.00;;;;5035420;28;20158;-43
2022/12/08 11:08:57;;;;;;;1.83;1.70;;;17.00;59.50;17.70;99959.00;;;;5033924;28;20202;-43
2022/12/08 11:11:57;;;;;;;2.00;1.80;;;17.00;59.60;17.70;99963.00;;;;5035462;28;20175;-43